Time;durP1;ratioP1;P1;durP2;ratioP2;P2;SDS_P1;SDS_P2;PMS_P1;PMS_P2;Temp;Humidity;BMP_temperature;BMP_pressure;BME280_temperature;BME280_humidity;BME280_pressure;Samples;Min_cycle;Max_cycle;Signal;HPM_P1;HPM_P2
2022/05/03 00:01:03;;;;;;;;;31.50;26.50;;;;;;;;5037283;28;46764;-72
2022/05/03 00:03:35;;;;;;;;;25.25;22.50;;;;;;;;5037785;28;45327;-71
2022/05/03 00:06:24;;;;;;;;;28.75;24.00;;;;;;;;5040290;28;45534;-72
2022/05/03 00:08:56;;;;;;;;;25.50;23.00;;;;;;;;5037961;28;45581;-72
2022/05/03 00:11:31;;;;;;;;;18.75;17.75;;;;;;;;5038012;28;45256;-72
2022/05/03 00:14:03;;;;;;;;;22.50;20.50;;;;;;;;5038423;28;45252;-71
2022/05/03 00:16:29;;;;;;;;;27.25;23.25;;;;;;;;5037963;28;45291;-71
2022/05/03 00:18:55;;;;;;;;;25.50;23.50;;;;;;;;5037477;28;45315;-71
2022/05/03 00:21:21;;;;;;;;;22.75;21.00;;;;;;;;5035785;28;47673;-71
2022/05/03 00:23:46;;;;;;;;;28.00;24.50;;;;;;;;5036992;28;45314;-71
2022/05/03 00:26:12;;;;;;;;;25.50;23.50;;;;;;;;5036923;28;45322;-71
2022/05/03 00:28:38;;;;;;;;;27.00;23.50;;;;;;;;5037176;28;45603;-71
2022/05/03 00:31:04;;;;;;;;;27.25;25.50;;;;;;;;5037225;28;46510;-71
2022/05/03 00:33:32;;;;;;;;;28.00;26.00;;;;;;;;5036901;28;45478;-72
2022/05/03 00:35:58;;;;;;;;;26.25;24.00;;;;;;;;5037411;28;45335;-72
2022/05/03 00:38:23;;;;;;;;;23.50;20.50;;;;;;;;5036975;28;45157;-72
2022/05/03 00:40:52;;;;;;;;;24.75;23.00;;;;;;;;5040354;28;46290;-71
2022/05/03 00:43:36;;;;;;;;;21.50;20.50;;;;;;;;5040520;28;45381;-71
2022/05/03 00:46:03;;;;;;;;;21.75;20.75;;;;;;;;5041087;28;45497;-72
2022/05/03 00:48:28;;;;;;;;;20.50;20.00;;;;;;;;5040623;28;45423;-71
2022/05/03 00:50:56;;;;;;;;;22.25;19.75;;;;;;;;5040410;28;45274;-71
2022/05/03 00:53:22;;;;;;;;;23.50;21.25;;;;;;;;5040474;28;45473;-72
2022/05/03 00:55:59;;;;;;;;;19.00;19.00;;;;;;;;5040178;28;45290;-71
2022/05/03 00:58:49;;;;;;;;;24.25;22.50;;;;;;;;5040586;28;45239;-71
2022/05/03 01:01:29;;;;;;;;;24.50;23.00;;;;;;;;5039846;28;45485;-73
2022/05/03 01:03:57;;;;;;;;;26.25;21.75;;;;;;;;5040159;28;45342;-73
2022/05/03 01:06:41;;;;;;;;;24.00;22.00;;;;;;;;5040503;28;45500;-71
2022/05/03 01:09:07;;;;;;;;;22.50;21.50;;;;;;;;5040678;28;45212;-72
2022/05/03 01:11:33;;;;;;;;;23.75;20.25;;;;;;;;5040588;28;45301;-71
2022/05/03 01:14:07;;;;;;;;;21.75;20.75;;;;;;;;5040822;28;45417;-71
2022/05/03 01:16:34;;;;;;;;;22.25;22.25;;;;;;;;5040577;28;45323;-71
2022/05/03 01:19:18;;;;;;;;;25.00;21.00;;;;;;;;5040097;28;45340;-70
2022/05/03 01:21:55;;;;;;;;;24.25;23.00;;;;;;;;5039665;28;46171;-71
2022/05/03 01:24:31;;;;;;;;;21.50;19.00;;;;;;;;5038322;28;45577;-71
2022/05/03 01:27:15;;;;;;;;;21.00;19.50;;;;;;;;5039848;28;45537;-70
2022/05/03 01:29:41;;;;;;;;;21.00;19.00;;;;;;;;5039903;28;45295;-71
2022/05/03 01:32:08;;;;;;;;;22.50;20.50;;;;;;;;5039692;28;45257;-70
2022/05/03 01:34:35;;;;;;;;;19.25;19.00;;;;;;;;5038623;28;45607;-71
2022/05/03 01:37:00;;;;;;;;;20.50;20.50;;;;;;;;5038511;28;45355;-72
2022/05/03 01:39:28;;;;;;;;;21.75;21.25;;;;;;;;5038415;28;45356;-72
2022/05/03 01:41:57;;;;;;;;;20.50;19.25;;;;;;;;5038343;28;45544;-71
2022/05/03 01:44:39;;;;;;;;;18.50;16.75;;;;;;;;5038207;28;45532;-71
2022/05/03 01:47:24;;;;;;;;;21.50;20.00;;;;;;;;5038670;28;45298;-71
2022/05/03 01:50:19;;;;;;;;;24.25;22.75;;;;;;;;5026580;28;45426;-71
2022/05/03 01:53:05;;;;;;;;;24.00;22.50;;;;;;;;5038202;28;46035;-71
2022/05/03 01:55:40;;;;;;;;;23.25;22.00;;;;;;;;5037795;28;45352;-71
2022/05/03 01:58:24;;;;;;;;;21.25;20.50;;;;;;;;5038333;28;45517;-71
2022/05/03 02:01:28;;;;;;;;;24.00;21.00;;;;;;;;5038292;28;45507;-70
2022/05/03 02:04:08;;;;;;;;;23.00;21.00;;;;;;;;5015530;28;46089;-71
2022/05/03 02:06:50;;;;;;;;;19.00;17.75;;;;;;;;5015658;28;45348;-71
2022/05/03 02:09:21;;;;;;;;;17.75;15.75;;;;;;;;5030924;28;45552;-71
2022/05/03 02:12:05;;;;;;;;;20.25;18.00;;;;;;;;5038160;28;45410;-71
2022/05/03 02:14:48;;;;;;;;;19.25;18.25;;;;;;;;5037764;28;46240;-71
2022/05/03 02:17:16;;;;;;;;;21.50;19.75;;;;;;;;5037457;28;45413;-71
2022/05/03 02:19:48;;;;;;;;;21.25;18.50;;;;;;;;5037880;28;45228;-71
2022/05/03 02:22:19;;;;;;;;;20.50;19.00;;;;;;;;5036494;28;45635;-72
2022/05/03 02:24:48;;;;;;;;;22.25;20.00;;;;;;;;5036144;28;46363;-71
2022/05/03 02:27:16;;;;;;;;;23.50;20.00;;;;;;;;5037395;28;45276;-71
2022/05/03 02:29:49;;;;;;;;;20.25;18.00;;;;;;;;5037973;28;45500;-71
2022/05/03 02:35:09;;;;;;;;;19.75;18.25;;;;;;;;5094461;27;45657;-72
2022/05/03 02:37:57;;;;;;;;;21.25;18.50;;;;;;;;5094484;27;45420;-72
2022/05/03 02:40:30;;;;;;;;;19.25;17.75;;;;;;;;5091377;27;45385;-72
2022/05/03 02:42:58;;;;;;;;;19.00;17.50;;;;;;;;5094841;27;45486;-72
2022/05/03 02:45:24;;;;;;;;;18.00;17.50;;;;;;;;5094469;27;45416;-72
2022/05/03 02:47:49;;;;;;;;;17.00;16.25;;;;;;;;5094571;27;45389;-72
2022/05/03 02:50:17;;;;;;;;;18.75;17.75;;;;;;;;5094672;27;45400;-72
2022/05/03 02:53:02;;;;;;;;;17.50;15.75;;;;;;;;5094920;27;45203;-72
2022/05/03 02:55:34;;;;;;;;;18.50;17.75;;;;;;;;5094381;27;46176;-72
2022/05/03 02:58:13;;;;;;;;;16.00;16.00;;;;;;;;5094409;27;45404;-72
2022/05/03 03:03:54;;;;;;;;;17.00;16.25;;;;;;;;5094416;27;45523;-72
2022/05/03 03:06:21;;;;;;;;;21.50;19.75;;;;;;;;5092736;27;46393;-72
2022/05/03 03:08:48;;;;;;;;;20.25;18.25;;;;;;;;5094061;27;45489;-72
2022/05/03 03:11:40;;;;;;;;;16.50;16.50;;;;;;;;5094541;27;45262;-72
2022/05/03 03:14:08;;;;;;;;;18.00;17.00;;;;;;;;5092876;27;45246;-72
2022/05/03 03:16:35;;;;;;;;;17.00;16.00;;;;;;;;5093795;27;45543;-72
2022/05/03 03:19:19;;;;;;;;;18.00;16.50;;;;;;;;5093895;27;45468;-72
2022/05/03 03:21:47;;;;;;;;;18.00;16.00;;;;;;;;5094399;27;45607;-72
2022/05/03 03:24:15;;;;;;;;;20.00;18.25;;;;;;;;5094476;27;45260;-72
2022/05/03 03:26:41;;;;;;;;;18.00;17.00;;;;;;;;5094094;27;45296;-72
2022/05/03 03:29:07;;;;;;;;;18.00;17.75;;;;;;;;5093743;27;45322;-72
2022/05/03 03:31:33;;;;;;;;;16.00;15.25;;;;;;;;5093899;27;45321;-72
2022/05/03 03:33:58;;;;;;;;;17.50;15.00;;;;;;;;5105107;27;45348;-72
2022/05/03 03:36:26;;;;;;;;;21.75;18.25;;;;;;;;5114115;27;45773;-72
2022/05/03 03:38:51;;;;;;;;;19.75;17.00;;;;;;;;5114349;27;45350;-72
2022/05/03 03:41:17;;;;;;;;;16.25;16.25;;;;;;;;5114436;27;45281;-72
2022/05/03 03:43:42;;;;;;;;;21.00;20.00;;;;;;;;5114770;27;45207;-72
2022/05/03 03:46:09;;;;;;;;;20.50;19.00;;;;;;;;5102209;27;45960;-72
2022/05/03 03:48:34;;;;;;;;;19.25;18.00;;;;;;;;5100493;27;45484;-72
2022/05/03 03:51:00;;;;;;;;;16.75;15.75;;;;;;;;5100236;27;45369;-72
2022/05/03 03:53:26;;;;;;;;;17.50;15.25;;;;;;;;5100558;27;45452;-72
2022/05/03 03:55:51;;;;;;;;;16.75;15.75;;;;;;;;5100218;27;46301;-72
2022/05/03 03:58:17;;;;;;;;;19.00;16.00;;;;;;;;5100802;27;45584;-72
2022/05/03 04:00:42;;;;;;;;;16.00;15.25;;;;;;;;5100757;27;45422;-72
2022/05/03 04:03:08;;;;;;;;;17.25;17.00;;;;;;;;5100460;27;45433;-72
2022/05/03 04:05:34;;;;;;;;;20.50;18.50;;;;;;;;5099979;27;46173;-73
2022/05/03 04:07:59;;;;;;;;;17.75;16.25;;;;;;;;5100505;27;45390;-72
2022/05/03 04:10:25;;;;;;;;;17.50;16.50;;;;;;;;5100372;27;45443;-72
2022/05/03 04:12:50;;;;;;;;;16.75;16.75;;;;;;;;5100151;27;45326;-72
2022/05/03 04:15:15;;;;;;;;;17.75;16.00;;;;;;;;5100368;27;46200;-72
2022/05/03 04:17:41;;;;;;;;;15.00;15.00;;;;;;;;5099994;27;45376;-72
2022/05/03 04:20:07;;;;;;;;;19.00;17.50;;;;;;;;5100007;27;45399;-72
2022/05/03 04:22:33;;;;;;;;;17.50;16.75;;;;;;;;5100019;27;45405;-72
2022/05/03 04:25:00;;;;;;;;;16.00;16.00;;;;;;;;5100068;27;46039;-71
2022/05/03 04:27:27;;;;;;;;;17.75;16.75;;;;;;;;5099957;27;45478;-71
2022/05/03 04:29:53;;;;;;;;;18.75;18.75;;;;;;;;5100406;27;45329;-72
2022/05/03 04:32:18;;;;;;;;;18.25;16.75;;;;;;;;5100208;27;45448;-71
2022/05/03 04:34:44;;;;;;;;;17.00;17.00;;;;;;;;5101643;27;45768;-71
2022/05/03 04:37:09;;;;;;;;;17.75;17.00;;;;;;;;5106827;27;45334;-71
2022/05/03 04:39:34;;;;;;;;;19.25;17.50;;;;;;;;5105819;27;45458;-71
2022/05/03 04:42:00;;;;;;;;;18.25;17.25;;;;;;;;5106910;27;45293;-71
2022/05/03 04:44:25;;;;;;;;;20.00;18.25;;;;;;;;5104253;27;45459;-70
2022/05/03 04:46:50;;;;;;;;;21.25;19.50;;;;;;;;5109405;27;45266;-71
2022/05/03 04:49:16;;;;;;;;;17.75;16.25;;;;;;;;5114433;27;45293;-72
2022/05/03 04:51:41;;;;;;;;;18.00;16.75;;;;;;;;5114538;27;46080;-71
2022/05/03 04:54:07;;;;;;;;;17.00;17.00;;;;;;;;5105764;27;45540;-70
2022/05/03 04:56:32;;;;;;;;;18.50;18.25;;;;;;;;5119790;27;44834;-71
2022/05/03 04:58:58;;;;;;;;;21.25;20.25;;;;;;;;5124678;27;44819;-70
2022/05/03 05:01:24;;;;;;;;;22.50;20.25;;;;;;;;5119269;27;45563;-70
2022/05/03 05:03:50;;;;;;;;;20.75;20.25;;;;;;;;5116934;27;45508;-70
2022/05/03 05:06:16;;;;;;;;;19.25;17.00;;;;;;;;5123537;27;44808;-71
2022/05/03 05:08:42;;;;;;;;;21.75;19.00;;;;;;;;5124641;27;44813;-71
2022/05/03 05:11:08;;;;;;;;;21.25;19.25;;;;;;;;5120712;27;44719;-72
2022/05/03 05:13:34;;;;;;;;;22.25;21.75;;;;;;;;5121948;27;45395;-72
2022/05/03 05:15:59;;;;;;;;;23.00;20.25;;;;;;;;5121519;27;44732;-72
2022/05/03 05:18:25;;;;;;;;;20.50;19.00;;;;;;;;5099522;27;45415;-72
2022/05/03 05:20:51;;;;;;;;;26.00;22.75;;;;;;;;5114506;27;45377;-72
2022/05/03 05:23:16;;;;;;;;;30.25;25.50;;;;;;;;5115525;27;46110;-71
2022/05/03 05:25:41;;;;;;;;;27.25;22.50;;;;;;;;5118527;27;44827;-73
2022/05/03 05:28:07;;;;;;;;;25.00;21.00;;;;;;;;5108907;27;45520;-71
2022/05/03 05:30:32;;;;;;;;;29.50;22.25;;;;;;;;5116870;27;44798;-71
2022/05/03 05:32:58;;;;;;;;;35.00;30.25;;;;;;;;5118853;27;45606;-70
2022/05/03 05:35:23;;;;;;;;;29.75;25.25;;;;;;;;5118403;27;45418;-71
2022/05/03 05:37:48;;;;;;;;;27.25;22.50;;;;;;;;5117639;27;44693;-71
2022/05/03 05:40:14;;;;;;;;;33.00;25.00;;;;;;;;5118585;27;45221;-72
2022/05/03 05:42:39;;;;;;;;;28.00;24.50;;;;;;;;5115855;27;45205;-69
2022/05/03 05:45:05;;;;;;;;;25.50;22.50;;;;;;;;5115683;27;45132;-71
2022/05/03 05:47:30;;;;;;;;;27.50;25.50;;;;;;;;5120275;27;44824;-71
2022/05/03 05:49:56;;;;;;;;;30.50;26.00;;;;;;;;5113114;27;45198;-72
2022/05/03 05:55:05;;;;;;;;;35.50;28.00;;;;;;;;5117613;27;45259;-72
2022/05/03 05:57:31;;;;;;;;;30.75;24.25;;;;;;;;5117642;27;44773;-73
2022/05/03 05:59:56;;;;;;;;;32.75;28.00;;;;;;;;5115132;27;44869;-72
2022/05/03 06:02:22;;;;;;;;;33.00;25.25;;;;;;;;5111175;27;45335;-72
2022/05/03 06:04:47;;;;;;;;;26.75;21.75;;;;;;;;5115593;27;45114;-71
2022/05/03 06:07:13;;;;;;;;;28.75;22.50;;;;;;;;5108915;27;45419;-71
2022/05/03 06:09:39;;;;;;;;;26.25;22.25;;;;;;;;5098214;27;45473;-71
2022/05/03 06:12:05;;;;;;;;;26.00;25.00;;;;;;;;5096822;27;45368;-73
2022/05/03 06:14:30;;;;;;;;;25.75;21.50;;;;;;;;5097058;27;45369;-72
2022/05/03 06:16:57;;;;;;;;;23.25;22.50;;;;;;;;5096669;27;45448;-72
2022/05/03 06:19:23;;;;;;;;;25.75;23.25;;;;;;;;5096952;27;45370;-72
2022/05/03 06:21:49;;;;;;;;;31.75;23.75;;;;;;;;5093715;27;45583;-72
2022/05/03 06:24:15;;;;;;;;;30.75;23.50;;;;;;;;5096495;27;45711;-72
2022/05/03 06:26:41;;;;;;;;;27.25;25.00;;;;;;;;5096400;27;45566;-72
2022/05/03 06:29:08;;;;;;;;;35.00;29.75;;;;;;;;5097426;27;45639;-71
2022/05/03 06:31:35;;;;;;;;;29.50;26.50;;;;;;;;5096375;27;45462;-71
2022/05/03 06:34:01;;;;;;;;;28.25;25.25;;;;;;;;5095996;27;45382;-71
2022/05/03 06:36:27;;;;;;;;;32.75;29.00;;;;;;;;5096244;27;45393;-73
2022/05/03 06:38:52;;;;;;;;;52.00;42.50;;;;;;;;5096506;27;45541;-72
2022/05/03 06:41:18;;;;;;;;;29.00;26.75;;;;;;;;5078229;27;45339;-73
2022/05/03 06:43:43;;;;;;;;;26.50;24.25;;;;;;;;5097786;27;45219;-73
2022/05/03 06:46:09;;;;;;;;;26.25;23.25;;;;;;;;5097687;27;45484;-73
2022/05/03 06:48:35;;;;;;;;;31.50;26.75;;;;;;;;5097537;27;45483;-72
2022/05/03 06:51:00;;;;;;;;;25.25;24.00;;;;;;;;5097593;27;45200;-71
2022/05/03 06:53:26;;;;;;;;;26.25;24.00;;;;;;;;5097760;27;45513;-71
2022/05/03 06:55:51;;;;;;;;;24.75;24.25;;;;;;;;5098089;27;45474;-76
2022/05/03 06:58:16;;;;;;;;;25.25;22.75;;;;;;;;5112913;27;45321;-75
2022/05/03 07:00:42;;;;;;;;;27.75;26.00;;;;;;;;5085537;27;46178;-75
2022/05/03 07:03:08;;;;;;;;;26.25;23.25;;;;;;;;5089877;28;45421;-79
2022/05/03 07:05:34;;;;;;;;;26.25;25.25;;;;;;;;5085016;27;45534;-72
2022/05/03 07:08:00;;;;;;;;;25.00;22.25;;;;;;;;5086609;27;45441;-78
2022/05/03 07:10:26;;;;;;;;;23.50;22.75;;;;;;;;5089887;27;45353;-75
2022/05/03 07:12:52;;;;;;;;;24.25;23.25;;;;;;;;5087295;27;44748;-80
2022/05/03 07:15:21;;;;;;;;;26.75;25.50;;;;;;;;5081788;27;45258;-74
2022/05/03 07:23:16;;;;;;;;;25.75;24.00;;;;;;;;5080744;28;45410;-76
2022/05/03 07:25:44;;;;;;;;;21.00;20.25;;;;;;;;5080308;27;45349;-76
2022/05/03 07:28:10;;;;;;;;;26.75;24.00;;;;;;;;5080993;27;45337;-75
2022/05/03 07:30:36;;;;;;;;;26.25;21.75;;;;;;;;5081097;28;45587;-75
2022/05/03 07:33:02;;;;;;;;;30.25;26.00;;;;;;;;5079755;27;45719;-75
2022/05/03 07:35:27;;;;;;;;;31.25;29.75;;;;;;;;5082103;27;45518;-78
2022/05/03 07:37:55;;;;;;;;;22.75;20.25;;;;;;;;5080766;27;45370;-75
2022/05/03 07:40:21;;;;;;;;;21.25;20.75;;;;;;;;5084273;28;45293;-78
2022/05/03 07:42:46;;;;;;;;;26.50;24.50;;;;;;;;5080287;27;45355;-75
2022/05/03 07:45:12;;;;;;;;;25.00;23.00;;;;;;;;5079490;27;45238;-75
2022/05/03 07:47:40;;;;;;;;;22.00;20.75;;;;;;;;5080634;27;45583;-79
2022/05/03 07:50:05;;;;;;;;;25.75;24.00;;;;;;;;5078238;28;45504;-72
2022/05/03 07:52:31;;;;;;;;;24.50;23.25;;;;;;;;5079457;27;45532;-77
2022/05/03 07:54:59;;;;;;;;;24.50;24.25;;;;;;;;5080655;27;45295;-75
2022/05/03 07:57:25;;;;;;;;;22.00;21.67;;;;;;;;5082458;27;45391;-73
2022/05/03 07:59:54;;;;;;;;;21.33;20.33;;;;;;;;5080897;27;45770;-77
2022/05/03 08:02:21;;;;;;;;;27.00;23.25;;;;;;;;5080379;27;45413;-74
2022/05/03 08:04:47;;;;;;;;;26.00;24.00;;;;;;;;5074010;28;45416;-72
2022/05/03 08:07:13;;;;;;;;;22.00;21.25;;;;;;;;5079143;27;45352;-75
2022/05/03 08:09:38;;;;;;;;;24.50;23.25;;;;;;;;5060998;27;47299;-72
2022/05/03 08:12:05;;;;;;;;;21.33;20.00;;;;;;;;5078174;27;45521;-72
2022/05/03 08:14:30;;;;;;;;;23.00;22.75;;;;;;;;5079025;27;45503;-73
2022/05/03 08:16:56;;;;;;;;;22.50;22.25;;;;;;;;5078949;27;45413;-76
2022/05/03 08:19:25;;;;;;;;;24.00;22.33;;;;;;;;5078646;27;45534;-72
2022/05/03 08:21:52;;;;;;;;;21.67;20.33;;;;;;;;5078892;27;45530;-70
2022/05/03 08:24:18;;;;;;;;;24.33;22.33;;;;;;;;5078503;27;45453;-76
2022/05/03 08:26:44;;;;;;;;;22.67;20.33;;;;;;;;5078684;28;45559;-77
2022/05/03 08:29:09;;;;;;;;;19.33;18.33;;;;;;;;5078482;27;46203;-77
2022/05/03 08:31:35;;;;;;;;;26.67;24.67;;;;;;;;5078505;27;45349;-72
2022/05/03 08:34:03;;;;;;;;;28.50;26.25;;;;;;;;5078573;27;45298;-75
2022/05/03 08:36:29;;;;;;;;;25.33;23.33;;;;;;;;5078765;27;45908;-76
2022/05/03 08:44:23;;;;;;;;;29.50;26.25;;;;;;;;5078046;28;45487;-72
2022/05/03 08:46:49;;;;;;;;;24.33;22.33;;;;;;;;5077814;27;45376;-70
2022/05/03 08:49:17;;;;;;;;;23.50;21.25;;;;;;;;5078462;27;45321;-73
2022/05/03 08:51:43;;;;;;;;;22.33;21.00;;;;;;;;5078161;27;45382;-73
2022/05/03 08:54:09;;;;;;;;;28.00;24.33;;;;;;;;5078207;27;45492;-72
2022/05/03 08:56:35;;;;;;;;;23.00;22.33;;;;;;;;5078787;27;45504;-72
2022/05/03 08:59:00;;;;;;;;;58.25;46.50;;;;;;;;5077716;27;46145;-71
2022/05/03 09:01:26;;;;;;;;;44.50;38.75;;;;;;;;5078046;28;45587;-70
2022/05/03 09:03:52;;;;;;;;;30.25;27.25;;;;;;;;5079153;27;45425;-73
2022/05/03 09:06:18;;;;;;;;;24.25;23.75;;;;;;;;5078632;27;45290;-72
2022/05/03 09:08:46;;;;;;;;;26.25;24.25;;;;;;;;5078375;27;46098;-73
2022/05/03 09:11:13;;;;;;;;;24.00;18.33;;;;;;;;5078337;27;45222;-72
2022/05/03 09:13:38;;;;;;;;;26.00;23.50;;;;;;;;5094048;27;45309;-72
2022/05/03 09:16:11;;;;;;;;;33.25;30.50;;;;;;;;5078506;27;45402;-73
2022/05/03 09:18:37;;;;;;;;;31.75;30.00;;;;;;;;5078029;27;45485;-73
2022/05/03 09:24:00;;;;;;;;;27.00;24.50;;;;;;;;5078266;28;45313;-73
2022/05/03 09:26:28;;;;;;;;;36.25;33.75;;;;;;;;5078454;27;45650;-71
2022/05/03 09:29:03;;;;;;;;;47.75;40.75;;;;;;;;5076812;27;45537;-73
2022/05/03 09:31:37;;;;;;;;;23.50;22.50;;;;;;;;5076565;28;45738;-73
2022/05/03 09:34:25;;;;;;;;;27.50;26.50;;;;;;;;5078194;27;45233;-72
2022/05/03 09:36:55;;;;;;;;;28.25;26.75;;;;;;;;5078025;28;45827;-73
2022/05/03 09:39:21;;;;;;;;;34.00;31.25;;;;;;;;5076445;27;47922;-72
2022/05/03 09:42:06;;;;;;;;;22.00;21.50;;;;;;;;5077685;27;45411;-73
2022/05/03 09:44:36;;;;;;;;;23.50;22.75;;;;;;;;5077393;27;45334;-73
2022/05/03 09:47:05;;;;;;;;;22.00;20.67;;;;;;;;5078284;27;45434;-74
2022/05/03 09:49:35;;;;;;;;;26.33;23.67;;;;;;;;5077863;28;46110;-74
2022/05/03 09:52:00;;;;;;;;;19.00;18.00;;;;;;;;5077979;27;45492;-74
2022/05/03 09:54:26;;;;;;;;;33.50;28.25;;;;;;;;5078265;27;45767;-73
2022/05/03 09:56:53;;;;;;;;;21.67;18.67;;;;;;;;5077981;27;45353;-72
2022/05/03 09:59:19;;;;;;;;;21.00;19.33;;;;;;;;5077489;27;46048;-72
2022/05/03 10:01:45;;;;;;;;;29.25;27.75;;;;;;;;5077371;27;45494;-72
2022/05/03 10:04:10;;;;;;;;;26.00;21.33;;;;;;;;5078087;27;45293;-72
2022/05/03 10:06:36;;;;;;;;;27.75;25.50;;;;;;;;5077975;28;45449;-72
2022/05/03 10:09:02;;;;;;;;;23.67;22.00;;;;;;;;5077493;27;45265;-71
2022/05/03 10:11:27;;;;;;;;;20.00;20.00;;;;;;;;5077700;27;45483;-72
2022/05/03 10:13:53;;;;;;;;;25.00;24.25;;;;;;;;5077752;27;45365;-72
2022/05/03 10:21:53;;;;;;;;;22.67;22.67;;;;;;;;5075126;27;45772;-74
2022/05/03 10:24:19;;;;;;;;;26.00;24.50;;;;;;;;5075981;27;45506;-73
2022/05/03 10:27:01;;;;;;;;;21.00;18.67;;;;;;;;5074937;27;45693;-73
2022/05/03 10:29:27;;;;;;;;;25.00;23.50;;;;;;;;5074563;28;46898;-76
2022/05/03 10:31:56;;;;;;;;;21.67;17.33;;;;;;;;5076172;27;45453;-73
2022/05/03 10:34:40;;;;;;;;;18.67;18.00;;;;;;;;5076716;27;45403;-73
2022/05/03 10:37:13;;;;;;;;;22.00;21.00;;;;;;;;5079830;28;45331;-73
2022/05/03 10:39:54;;;;;;;;;23.00;21.67;;;;;;;;5067490;28;46660;-74
2022/05/03 10:42:22;;;;;;;;;18.67;17.67;;;;;;;;5077133;28;45445;-76
2022/05/03 10:44:53;;;;;;;;;19.33;17.67;;;;;;;;5080402;27;45437;-75
2022/05/03 10:47:20;;;;;;;;;22.33;20.33;;;;;;;;5081034;27;45276;-75
2022/05/03 10:50:21;;;;;;;;;22.67;18.67;;;;;;;;5079582;27;45508;-73
2022/05/03 10:52:56;;;;;;;;;18.67;17.33;;;;;;;;5054412;28;45534;-75
2022/05/03 10:55:24;;;;;;;;;20.33;18.33;;;;;;;;5074619;27;45603;-76
2022/05/03 10:58:08;;;;;;;;;19.67;18.67;;;;;;;;5080733;27;45617;-74
2022/05/03 11:00:52;;;;;;;;;19.33;17.67;;;;;;;;5080338;28;46230;-75
2022/05/03 11:03:18;;;;;;;;;17.67;17.33;;;;;;;;5080423;28;45511;-75
2022/05/03 11:05:43;;;;;;;;;20.67;18.33;;;;;;;;5080500;27;45508;-76
2022/05/03 11:08:21;;;;;;;;;20.00;17.00;;;;;;;;5080807;27;45440;-76
2022/05/03 11:10:47;;;;;;;;;17.67;16.33;;;;;;;;5080408;27;45488;-76
2022/05/03 11:13:31;;;;;;;;;20.33;19.67;;;;;;;;5080350;27;45432;-76
2022/05/03 11:16:15;;;;;;;;;20.67;19.33;;;;;;;;5080590;28;45442;-74
2022/05/03 11:18:42;;;;;;;;;19.67;19.00;;;;;;;;5080522;28;45483;-75
2022/05/03 11:21:16;;;;;;;;;18.33;17.67;;;;;;;;5080106;28;45623;-74
2022/05/03 11:23:52;;;;;;;;;21.00;19.33;;;;;;;;5078680;27;45468;-74
2022/05/03 11:26:20;;;;;;;;;21.67;20.00;;;;;;;;5080475;27;45453;-74
2022/05/03 11:28:48;;;;;;;;;20.67;18.33;;;;;;;;5080410;27;45523;-75
2022/05/03 11:31:20;;;;;;;;;19.67;17.67;;;;;;;;5079728;27;46400;-73
2022/05/03 11:34:06;;;;;;;;;20.67;19.33;;;;;;;;5079795;27;45632;-75
2022/05/03 11:36:31;;;;;;;;;18.67;17.67;;;;;;;;5080420;27;45357;-76
2022/05/03 11:38:57;;;;;;;;;21.67;20.00;;;;;;;;5079954;27;45203;-76
2022/05/03 11:41:23;;;;;;;;;22.00;20.67;;;;;;;;5079931;27;46136;-75
2022/05/03 11:43:49;;;;;;;;;18.33;18.00;;;;;;;;5079787;27;45419;-75
2022/05/03 11:46:18;;;;;;;;;19.67;19.33;;;;;;;;5079942;27;45258;-73
2022/05/03 11:48:44;;;;;;;;;19.67;18.00;;;;;;;;5079864;27;45453;-75
2022/05/03 11:56:39;;;;;;;;;22.33;21.00;;;;;;;;5079870;28;45257;-72
2022/05/03 11:59:05;;;;;;;;;21.33;21.00;;;;;;;;5080114;28;45167;-75
2022/05/03 12:01:34;;;;;;;;;20.33;19.67;;;;;;;;5079532;27;45608;-77
2022/05/03 12:04:01;;;;;;;;;21.33;20.00;;;;;;;;5079289;27;45343;-75
2022/05/03 12:06:43;;;;;;;;;20.00;19.00;;;;;;;;5079206;27;45522;-73
2022/05/03 12:09:12;;;;;;;;;20.00;18.33;;;;;;;;5079701;27;45334;-75
2022/05/03 12:14:32;;;;;;;;;19.00;17.67;;;;;;;;5049950;27;45401;-75
2022/05/03 12:16:58;;;;;;;;;19.33;16.67;;;;;;;;5079479;27;45291;-76
2022/05/03 12:19:23;;;;;;;;;21.00;19.00;;;;;;;;5079506;27;45504;-75
2022/05/03 12:21:49;;;;;;;;;17.00;15.67;;;;;;;;5079172;27;46060;-76
2022/05/03 12:24:14;;;;;;;;;17.33;16.67;;;;;;;;5079386;27;45174;-76
2022/05/03 12:26:41;;;;;;;;;17.67;16.33;;;;;;;;5079607;27;45288;-75
2022/05/03 12:29:07;;;;;;;;;18.00;17.67;;;;;;;;5079902;27;45219;-76
2022/05/03 12:31:37;;;;;;;;;19.00;17.33;;;;;;;;5079053;27;46259;-75
2022/05/03 12:34:04;;;;;;;;;17.67;16.67;;;;;;;;5079254;27;45297;-77
2022/05/03 12:36:38;;;;;;;;;20.67;17.00;;;;;;;;5079180;27;45218;-75
2022/05/03 12:39:16;;;;;;;;;19.00;17.00;;;;;;;;5079727;27;45322;-77
2022/05/03 12:41:42;;;;;;;;;19.33;17.00;;;;;;;;5078933;27;45993;-74
2022/05/03 12:44:11;;;;;;;;;18.67;17.67;;;;;;;;5079030;27;45443;-74
2022/05/03 12:46:37;;;;;;;;;19.00;18.00;;;;;;;;5079199;27;45527;-76
2022/05/03 12:49:04;;;;;;;;;18.00;17.67;;;;;;;;5079050;27;45455;-76
2022/05/03 12:51:30;;;;;;;;;18.67;18.00;;;;;;;;5078533;27;45370;-75
2022/05/03 12:53:55;;;;;;;;;17.33;17.00;;;;;;;;5078713;28;45413;-76
2022/05/03 12:59:05;;;;;;;;;18.00;17.00;;;;;;;;5079349;28;45219;-76
2022/05/03 13:01:31;;;;;;;;;21.67;20.00;;;;;;;;5078367;28;45460;-76
2022/05/03 13:03:58;;;;;;;;;19.00;19.00;;;;;;;;5078622;27;45176;-74
2022/05/03 13:06:23;;;;;;;;;17.00;17.00;;;;;;;;5078926;27;45279;-74
2022/05/03 13:08:50;;;;;;;;;19.67;19.00;;;;;;;;5079032;27;45333;-73
2022/05/03 13:11:15;;;;;;;;;17.67;16.67;;;;;;;;5078565;28;46337;-75
2022/05/03 13:13:42;;;;;;;;;17.67;16.33;;;;;;;;5079173;27;45402;-75
2022/05/03 13:16:07;;;;;;;;;16.00;15.67;;;;;;;;5078872;27;45319;-74
2022/05/03 13:18:33;;;;;;;;;14.67;14.33;;;;;;;;5077852;27;45503;-75
2022/05/03 13:20:58;;;;;;;;;17.33;16.33;;;;;;;;5079924;27;45460;-76
2022/05/03 13:23:23;;;;;;;;;20.33;18.33;;;;;;;;5079025;27;45402;-74
2022/05/03 13:25:49;;;;;;;;;17.00;16.67;;;;;;;;5078770;27;45316;-75
2022/05/03 13:28:15;;;;;;;;;16.67;16.67;;;;;;;;5078479;27;45517;-75
2022/05/03 13:30:41;;;;;;;;;18.00;18.00;;;;;;;;5078047;28;46273;-75
2022/05/03 13:33:06;;;;;;;;;18.00;17.67;;;;;;;;5078136;27;45504;-76
2022/05/03 13:40:59;;;;;;;;;18.00;18.00;;;;;;;;5078299;28;45753;-75
2022/05/03 13:43:26;;;;;;;;;18.33;18.00;;;;;;;;5077913;27;45376;-74
2022/05/03 13:45:51;;;;;;;;;17.67;17.00;;;;;;;;5078102;27;45481;-75
2022/05/03 13:48:16;;;;;;;;;22.67;21.00;;;;;;;;5078444;27;45428;-77
2022/05/03 13:50:42;;;;;;;;;19.33;18.33;;;;;;;;5078058;28;46436;-73
2022/05/03 13:53:09;;;;;;;;;19.00;18.00;;;;;;;;5078479;28;45225;-75
2022/05/03 13:55:35;;;;;;;;;21.67;19.00;;;;;;;;5077920;27;45459;-74
2022/05/03 13:58:00;;;;;;;;;23.67;22.33;;;;;;;;5077919;27;45495;-77
2022/05/03 14:00:27;;;;;;;;;20.33;18.00;;;;;;;;5077561;27;45976;-74
2022/05/03 14:02:53;;;;;;;;;19.67;19.00;;;;;;;;5077834;27;45311;-76
2022/05/03 14:05:19;;;;;;;;;18.67;18.33;;;;;;;;5077925;27;45568;-74
2022/05/03 14:07:44;;;;;;;;;19.67;19.33;;;;;;;;5079767;27;45330;-74
2022/05/03 14:10:09;;;;;;;;;21.50;19.00;;;;;;;;5083737;27;45373;-77
2022/05/03 14:12:35;;;;;;;;;18.67;18.67;;;;;;;;5043971;27;45444;-75
2022/05/03 14:15:01;;;;;;;;;18.33;18.33;;;;;;;;5059032;28;45480;-72
2022/05/03 14:17:27;;;;;;;;;20.67;20.00;;;;;;;;5061437;28;45652;-73
2022/05/03 14:19:52;;;;;;;;;19.67;18.33;;;;;;;;5058555;28;45493;-72
2022/05/03 14:22:19;;;;;;;;;22.33;21.33;;;;;;;;5057928;28;45410;-73
2022/05/03 14:24:45;;;;;;;;;21.67;21.00;;;;;;;;5061248;28;45492;-74
2022/05/03 14:27:11;;;;;;;;;19.67;19.33;;;;;;;;5059747;28;45814;-75
2022/05/03 14:29:36;;;;;;;;;23.00;20.00;;;;;;;;5058854;28;46103;-76
2022/05/03 14:32:02;;;;;;;;;22.00;21.00;;;;;;;;5056698;28;45373;-76
2022/05/03 14:34:27;;;;;;;;;21.33;20.67;;;;;;;;5055155;28;45519;-73
2022/05/03 14:36:53;;;;;;;;;24.00;20.00;;;;;;;;5055994;28;45361;-74
2022/05/03 14:39:18;;;;;;;;;16.00;15.33;;;;;;;;5055427;28;46287;-74
2022/05/03 14:41:43;;;;;;;;;20.00;19.00;;;;;;;;5056962;28;45502;-74
2022/05/03 14:44:09;;;;;;;;;18.33;18.00;;;;;;;;5056222;28;45765;-72
2022/05/03 14:46:34;;;;;;;;;24.00;21.33;;;;;;;;5056308;28;45320;-73
2022/05/03 14:49:00;;;;;;;;;22.33;20.33;;;;;;;;5056384;28;45482;-74
2022/05/03 14:51:26;;;;;;;;;23.67;22.33;;;;;;;;5056568;28;45364;-74
2022/05/03 14:53:51;;;;;;;;;22.00;21.00;;;;;;;;5058426;28;45328;-72
2022/05/03 15:04:28;;;;;;;;;21.00;20.00;;;;;;;;5056854;28;45390;-73
2022/05/03 15:06:54;;;;;;;;;23.67;23.67;;;;;;;;5056910;28;45356;-74
2022/05/03 15:09:19;;;;;;;;;23.00;22.33;;;;;;;;5055287;28;45594;-75
2022/05/03 15:11:44;;;;;;;;;20.00;19.33;;;;;;;;5056869;28;45440;-75
2022/05/03 15:14:10;;;;;;;;;27.00;25.67;;;;;;;;5056456;28;45198;-75
2022/05/03 15:16:35;;;;;;;;;25.00;22.67;;;;;;;;5056629;28;45506;-75